Nioaque, Brazil
Current Conditions -  °F | °C
As of 6:00 AM on Wednesday 26 Nov 2014 (Local Time) from SBCG Reporting Station
Broken Clouds Broken Clouds  
Wind Chill: 68°   Ceiling: 300
Heat Index: 68°   Visibility: 6mi
Dew Point: 66°   Wind: 14mph
Humidity: 94%   Direction: 340°NNW
Pressure: 29.77"   Gusts: NA
Location:  21.14°S, 55.83°W
Report Text: SBCG 260900Z 34012KT 9000 FEW001 BKN003 FEW045TCU 20/19 Q1008
Loading
Personal Weather Stations






























Interactive Weather Map New forecast layout! Learn more

10-Day Weather Forecast

Advertisements
Track Severe Weather on mobile